Overbrook, West Virginia
Current Conditions -  °F | °C
As of 8:53 AM on Sunday 23 Nov 2014 (Local Time) from KHLG Reporting Station
Overcast Overcast  
Wind Chill: 52°   Ceiling: 3600
Heat Index: 52°   Visibility: 10mi
Dew Point: 29°   Wind: 7mph
Humidity: 41%   Direction: 170°S
Pressure: 30.08"   Gusts: NA
Location:  40.0729°N, 80.6524°W
Report Text: KHLG 231353Z AUTO 17006KT 10SM BKN036 OVC100 11/M02 A3008 RMK AO2 SLP190 T01111017
Loading
Personal Weather Stations






























Interactive Weather Map New forecast layout! Learn more

10-Day Weather Forecast

Advertisements
Track Severe Weather on mobile